Pen Duick III — FW3531 — position and weather

sailwx.info

Track history (hours):
 
Tides and Currents Weather Stations Pressure Air Temp Water Temp Dewpoint Dewpoint Depression Visibility Wind Speed Wind Dir Waves Ship Positions

Pen Duick III

Last reported at 2017-Sep-29 13:19 UTC. Time now 2017-Nov-23 12:59 UTC.
Position N 47°44' W 003°22'.
Warning: this ship's position is 54 days out of date.

Length 18 m.

Type: Sailing vessel. MMSI: 227510570.

Date/timePositionNaut miles runAvg speedWind from/ knotsBaromVisibWave heightAir tempDewpointWater temp
2017-Sep-29 13:19N 47°44' W 003°22'1 1.7
2017-Sep-29 13:00N 47°43' W 003°22'3 6.2
2017-Sep-29 12:30N 47°41' W 003°24'3 1.0
2017-Sep-29 09:56N 47°39' W 003°27'0 0.4
2017-Sep-29 09:30N 47°39' W 003°27'2 3.6
2017-Sep-29 09:00N 47°40' W 003°25'3 6.1
2017-Sep-29 08:30N 47°43' W 003°22'1 2.4
2017-Sep-29 07:58N 47°44' W 003°22'0 0.0
2017-Sep-27 14:06N 47°44' W 003°22'0 3.8
2017-Sep-27 14:00N 47°44' W 003°22'3 5.0
2017-Sep-27 13:30N 47°41' W 003°24'1 2.4
2017-Sep-27 13:00N 47°41' W 003°26'3 6.8
2017-Sep-27 12:30N 47°43' W 003°22'1 0.2
2017-Sep-27 09:15N 47°44' W 003°22'1 2.5
2017-Sep-27 08:57N 47°43' W 003°22'3 7.1
2017-Sep-27 08:29N 47°40' W 003°22'3 6.4
2017-Sep-27 08:00N 47°43' W 003°22'1 1.8
2017-Sep-27 07:29N 47°44' W 003°22'0 0.0
2017-Sep-27 06:59N 47°44' W 003°22'0 0.0
2017-Sep-26 14:26N 47°44' W 003°22'2 3.7
2017-Sep-26 13:59N 47°42' W 003°23'2 4.3
2017-Sep-26 13:30N 47°41' W 003°25'2 4.4
2017-Sep-26 13:00N 47°39' W 003°27'0 0.4
2017-Sep-26 12:27N 47°39' W 003°27'0 0.0
2017-Sep-26 12:00N 47°39' W 003°27'0 0.0
2017-Sep-26 09:52N 47°39' W 003°27'1 1.9
2017-Sep-26 09:30N 47°39' W 003°26'2 3.1
2017-Sep-26 09:00N 47°40' W 003°25'3 5.3
2017-Sep-26 08:30N 47°42' W 003°22'1 0.0
2017-Sep-24 12:03N 47°44' W 003°22'0 2.4
2017-Sep-24 12:00N 47°44' W 003°22'3 4.9
2017-Sep-24 11:29N 47°41' W 003°24'3 5.9
2017-Sep-24 11:00N 47°40' W 003°28'2 3.5
2017-Sep-24 10:30N 47°41' W 003°30'1 2.4
2017-Sep-24 10:00N 47°41' W 003°29'4 7.2
2017-Sep-24 09:30N 47°41' W 003°23'2 4.6
2017-Sep-24 08:59N 47°44' W 003°22'0 0.0
2017-Sep-24 08:23N 47°44' W 003°22'0 0.0
2017-Sep-24 07:59N 47°44' W 003°22'  
2017-Sep-20 12:43N 47°44' W 003°22'0 0.0
2017-Sep-20 12:25N 47°44' W 003°22'0 0.0
2017-Sep-20 11:55N 47°44' W 003°22'0 0.0
2017-Sep-20 11:25N 47°44' W 003°22'0 0.0
2017-Sep-20 10:43N 47°44' W 003°22'0 0.0
2017-Sep-20 10:25N 47°44' W 003°22'0 0.0
2017-Sep-20 09:58N 47°44' W 003°22'  
Track history (hours):
 
Tides and Currents Weather Stations Pressure Air Temp Water Temp Dewpoint Dewpoint Depression Visibility Wind Speed Wind Dir Waves Ship Positions

Pen Duick III

Last reported at 2017-Sep-29 13:19 UTC. Time now 2017-Nov-23 12:59 UTC.
Position N 47°44' W 003°22'.
Warning: this ship's position is 54 days out of date.

Length 18 m.

Type: Sailing vessel. MMSI: 227510570.

Date/timePositionNaut miles runAvg speedWind from/ knotsBaromVisibWave heightAir tempDewpointWater temp
2017-Sep-29 13:19N 47°44' W 003°22'1 1.7
2017-Sep-29 13:00N 47°43' W 003°22'3 6.2
2017-Sep-29 12:30N 47°41' W 003°24'3 1.0
2017-Sep-29 09:56N 47°39' W 003°27'0 0.4
2017-Sep-29 09:30N 47°39' W 003°27'2 3.6
2017-Sep-29 09:00N 47°40' W 003°25'3 6.1
2017-Sep-29 08:30N 47°43' W 003°22'1 2.4
2017-Sep-29 07:58N 47°44' W 003°22'0 0.0
2017-Sep-27 14:06N 47°44' W 003°22'0 3.8
2017-Sep-27 14:00N 47°44' W 003°22'3 5.0
2017-Sep-27 13:30N 47°41' W 003°24'1 2.4
2017-Sep-27 13:00N 47°41' W 003°26'3 6.8
2017-Sep-27 12:30N 47°43' W 003°22'1 0.2
2017-Sep-27 09:15N 47°44' W 003°22'1 2.5
2017-Sep-27 08:57N 47°43' W 003°22'3 7.1
2017-Sep-27 08:29N 47°40' W 003°22'3 6.4
2017-Sep-27 08:00N 47°43' W 003°22'1 1.8
2017-Sep-27 07:29N 47°44' W 003°22'0 0.0
2017-Sep-27 06:59N 47°44' W 003°22'0 0.0
2017-Sep-26 14:26N 47°44' W 003°22'2 3.7
2017-Sep-26 13:59N 47°42' W 003°23'2 4.3
2017-Sep-26 13:30N 47°41' W 003°25'2 4.4
2017-Sep-26 13:00N 47°39' W 003°27'0 0.4
2017-Sep-26 12:27N 47°39' W 003°27'0 0.0
2017-Sep-26 12:00N 47°39' W 003°27'0 0.0
2017-Sep-26 09:52N 47°39' W 003°27'1 1.9
2017-Sep-26 09:30N 47°39' W 003°26'2 3.1
2017-Sep-26 09:00N 47°40' W 003°25'3 5.3
2017-Sep-26 08:30N 47°42' W 003°22'1 0.0
2017-Sep-24 12:03N 47°44' W 003°22'0 2.4
2017-Sep-24 12:00N 47°44' W 003°22'3 4.9
2017-Sep-24 11:29N 47°41' W 003°24'3 5.9
2017-Sep-24 11:00N 47°40' W 003°28'2 3.5
2017-Sep-24 10:30N 47°41' W 003°30'1 2.4
2017-Sep-24 10:00N 47°41' W 003°29'4 7.2
2017-Sep-24 09:30N 47°41' W 003°23'2 4.6
2017-Sep-24 08:59N 47°44' W 003°22'0 0.0
2017-Sep-24 08:23N 47°44' W 003°22'0 0.0
2017-Sep-24 07:59N 47°44' W 003°22'  
2017-Sep-20 12:43N 47°44' W 003°22'0 0.0
2017-Sep-20 12:25N 47°44' W 003°22'0 0.0
2017-Sep-20 11:55N 47°44' W 003°22'0 0.0
2017-Sep-20 11:25N 47°44' W 003°22'0 0.0
2017-Sep-20 10:43N 47°44' W 003°22'0 0.0
2017-Sep-20 10:25N 47°44' W 003°22'0 0.0
2017-Sep-20 09:58N 47°44' W 003°22'  

Dump ship's entire track history